Time;durP1;ratioP1;P1;durP2;ratioP2;P2;SDS_P1;SDS_P2;PMS_P1;PMS_P2;Temp;Humidity;BMP_temperature;BMP_pressure;BME280_temperature;BME280_humidity;BME280_pressure;Samples;Min_cycle;Max_cycle;Signal;HPM_P1;HPM_P2
2022/03/30 00:00:26;;;;;;;27.60;16.33;;;11.30;99.90;;;;;;5076790;28;20450;-71
2022/03/30 00:03:12;;;;;;;25.90;17.23;;;11.20;99.90;;;;;;5085128;28;20442;-71
2022/03/30 00:05:58;;;;;;;25.63;16.70;;;11.20;99.90;;;;;;5074188;28;20584;-71
2022/03/30 00:08:44;;;;;;;22.33;15.70;;;11.20;99.90;;;;;;5076626;28;20519;-71
2022/03/30 00:11:30;;;;;;;25.93;17.97;;;11.30;99.90;;;;;;5077795;28;20443;-70
2022/03/30 00:14:17;;;;;;;26.10;18.00;;;11.30;99.90;;;;;;5081121;28;20467;-71
2022/03/30 00:17:03;;;;;;;24.20;15.03;;;11.10;99.90;;;;;;5078507;28;20433;-71
2022/03/30 00:19:49;;;;;;;22.70;16.00;;;11.20;99.90;;;;;;5081471;28;20437;-71
2022/03/30 00:22:35;;;;;;;24.73;16.70;;;11.40;99.90;;;;;;5084043;28;20445;-70
2022/03/30 00:25:21;;;;;;;24.30;15.60;;;11.50;99.90;;;;;;5079615;28;21032;-71
2022/03/30 00:28:08;;;;;;;35.20;18.70;;;11.50;99.90;;;;;;5081559;28;20562;-71
2022/03/30 00:30:55;;;;;;;24.80;16.87;;;11.50;99.90;;;;;;5087199;28;20446;-71
2022/03/30 00:33:41;;;;;;;25.33;16.20;;;11.50;99.90;;;;;;5086876;28;20414;-71
2022/03/30 00:36:27;;;;;;;26.10;16.30;;;11.50;99.90;;;;;;5078895;28;20855;-71
2022/03/30 00:39:12;;;;;;;32.27;15.73;;;11.50;99.90;;;;;;5084000;28;20473;-70
2022/03/30 00:41:58;;;;;;;21.67;14.67;;;11.50;99.90;;;;;;5086142;28;20437;-71
2022/03/30 00:44:44;;;;;;;23.00;15.80;;;11.50;99.90;;;;;;5080280;28;20573;-71
2022/03/30 00:47:31;;;;;;;21.03;14.90;;;11.50;99.90;;;;;;5078906;28;20455;-71
2022/03/30 00:50:19;;;;;;;21.90;14.13;;;11.30;99.90;;;;;;5080812;28;20446;-70
2022/03/30 00:53:06;;;;;;;23.47;15.67;;;11.30;99.90;;;;;;5081944;28;20457;-71
2022/03/30 00:55:53;;;;;;;21.10;14.87;;;11.20;99.90;;;;;;5075339;28;20468;-70
2022/03/30 00:58:39;;;;;;;26.20;15.50;;;11.20;99.90;;;;;;5090859;28;20440;-70
2022/03/30 01:01:25;;;;;;;22.97;16.07;;;11.20;99.90;;;;;;5080463;28;20449;-70
2022/03/30 01:04:12;;;;;;;26.60;15.83;;;11.30;99.90;;;;;;5079896;28;20543;-69
2022/03/30 01:06:58;;;;;;;21.43;15.53;;;11.40;99.90;;;;;;5085789;28;20443;-71
2022/03/30 01:09:44;;;;;;;22.93;15.97;;;11.40;99.90;;;;;;5079352;28;20445;-71
2022/03/30 01:12:31;;;;;;;26.33;14.80;;;11.20;99.90;;;;;;5084236;28;20489;-70
2022/03/30 01:15:17;;;;;;;20.10;14.93;;;11.20;99.90;;;;;;5086376;28;21025;-71
2022/03/30 01:18:03;;;;;;;22.13;15.30;;;11.10;99.90;;;;;;5080144;28;20448;-71
2022/03/30 01:20:50;;;;;;;22.50;15.93;;;11.10;99.90;;;;;;5085182;28;20966;-70
2022/03/30 01:23:36;;;;;;;26.27;17.60;;;11.00;99.90;;;;;;5085104;28;20438;-70
2022/03/30 01:26:23;;;;;;;21.17;14.73;;;11.10;99.90;;;;;;5085338;28;20569;-73
2022/03/30 01:32:29;;;;;;;25.50;15.53;;;11.30;99.90;;;;;;5091602;28;20435;-72
2022/03/30 01:35:14;;;;;;;20.47;14.07;;;11.40;99.90;;;;;;5084394;28;20476;-71
2022/03/30 01:38:02;;;;;;;21.03;13.63;;;11.40;99.90;;;;;;5082305;28;20462;-70
2022/03/30 01:40:48;;;;;;;20.80;14.83;;;11.40;99.90;;;;;;5083658;28;20530;-70
2022/03/30 01:43:33;;;;;;;24.77;15.27;;;11.30;99.90;;;;;;5079935;28;20428;-71
2022/03/30 01:46:19;;;;;;;18.37;14.60;;;11.30;99.90;;;;;;5085479;28;20880;-70
2022/03/30 01:49:05;;;;;;;21.90;15.20;;;11.10;99.90;;;;;;5083186;28;20470;-70
2022/03/30 01:51:52;;;;;;;24.40;13.70;;;11.10;99.90;;;;;;5083384;28;20437;-70
2022/03/30 01:54:40;;;;;;;24.37;14.33;;;11.10;99.90;;;;;;5083299;28;20465;-70
2022/03/30 01:57:26;;;;;;;18.33;14.27;;;11.00;99.90;;;;;;5089779;28;20413;-70
2022/03/30 02:00:13;;;;;;;21.53;14.77;;;11.00;99.90;;;;;;5079650;28;20814;-72
2022/03/30 02:02:59;;;;;;;21.57;15.67;;;11.00;99.90;;;;;;5091159;28;20977;-70
2022/03/30 02:05:45;;;;;;;26.30;15.60;;;11.00;99.90;;;;;;5085793;28;20964;-71
2022/03/30 02:08:31;;;;;;;21.73;14.37;;;10.80;99.90;;;;;;5095218;28;20435;-70
2022/03/30 02:11:18;;;;;;;21.57;14.17;;;10.80;99.90;;;;;;5080782;28;20405;-69
2022/03/30 02:14:04;;;;;;;22.70;15.53;;;10.60;99.90;;;;;;5079723;28;20858;-70
2022/03/30 02:16:49;;;;;;;18.53;14.00;;;10.80;99.90;;;;;;5085910;28;20441;-69
2022/03/30 02:19:35;;;;;;;25.40;15.63;;;10.80;99.90;;;;;;5085289;28;20826;-69
2022/03/30 02:22:22;;;;;;;24.27;14.77;;;10.90;99.90;;;;;;5102643;28;20436;-70
2022/03/30 02:25:08;;;;;;;24.27;14.87;;;11.00;99.90;;;;;;5083600;28;20470;-71
2022/03/30 02:27:55;;;;;;;24.10;15.50;;;11.20;99.90;;;;;;5087556;28;20566;-71
2022/03/30 02:30:41;;;;;;;23.73;14.20;;;11.20;99.90;;;;;;5091988;28;20432;-70
2022/03/30 02:33:27;;;;;;;26.10;13.13;;;11.20;99.90;;;;;;5082832;28;20445;-71
2022/03/30 02:36:14;;;;;;;20.10;13.23;;;11.10;99.90;;;;;;5088665;28;20441;-70
2022/03/30 02:38:59;;;;;;;21.90;13.10;;;11.00;99.90;;;;;;5085387;28;20468;-70
2022/03/30 02:41:45;;;;;;;19.53;12.37;;;11.00;99.90;;;;;;5080860;28;20431;-70
2022/03/30 02:44:32;;;;;;;21.83;13.07;;;11.10;99.90;;;;;;5084910;28;20998;-71
2022/03/30 02:48:17;;;;;;;19.03;12.53;;;11.00;99.90;;;;;;5087021;28;20456;-69
2022/03/30 02:50:23;;;;;;;21.23;13.50;;;10.90;99.90;;;;;;5081590;28;20442;-71
2022/03/30 02:53:09;;;;;;;18.20;12.33;;;10.90;99.90;;;;;;5083074;28;20925;-73
2022/03/30 02:55:55;;;;;;;26.37;12.30;;;10.80;99.90;;;;;;5082677;28;20458;-71
2022/03/30 02:58:41;;;;;;;16.97;11.50;;;10.70;99.90;;;;;;5086062;28;20455;-71
2022/03/30 03:01:28;;;;;;;20.13;13.43;;;10.70;99.90;;;;;;5087937;28;20582;-71
2022/03/30 03:04:14;;;;;;;19.80;12.03;;;10.80;99.90;;;;;;5082117;28;20455;-70
2022/03/30 03:06:59;;;;;;;24.07;14.90;;;10.90;99.90;;;;;;5086162;28;20412;-70
2022/03/30 03:09:45;;;;;;;23.23;13.40;;;10.90;99.90;;;;;;5088708;28;20422;-70
2022/03/30 03:12:31;;;;;;;17.53;12.40;;;10.90;99.90;;;;;;5079540;28;20444;-71
2022/03/30 03:15:16;;;;;;;18.53;12.60;;;10.80;99.90;;;;;;5084401;28;20482;-70
2022/03/30 03:18:04;;;;;;;19.57;13.17;;;10.70;99.90;;;;;;5087883;28;20463;-70
2022/03/30 03:20:50;;;;;;;18.70;12.20;;;10.50;99.90;;;;;;5083383;28;20498;-70
2022/03/30 03:23:36;;;;;;;22.13;12.90;;;10.40;99.90;;;;;;5081689;28;21071;-70
2022/03/30 03:26:22;;;;;;;24.87;14.00;;;10.20;99.90;;;;;;5084292;28;21005;-70
2022/03/30 03:29:08;;;;;;;22.70;13.97;;;10.20;99.90;;;;;;5084314;28;20412;-71
2022/03/30 03:31:54;;;;;;;19.10;14.17;;;10.30;99.90;;;;;;5081696;28;20541;-70
2022/03/30 03:34:41;;;;;;;18.77;12.40;;;10.30;99.90;;;;;;5082437;28;20501;-70
2022/03/30 03:37:27;;;;;;;21.20;14.30;;;10.30;99.90;;;;;;5087563;28;20417;-70
2022/03/30 03:40:13;;;;;;;22.00;13.27;;;10.10;99.90;;;;;;5084977;28;20607;-71
2022/03/30 03:42:59;;;;;;;21.10;14.07;;;10.00;99.90;;;;;;5083009;28;21035;-71
2022/03/30 03:45:44;;;;;;;22.73;13.40;;;10.00;99.90;;;;;;5087562;28;20485;-71
2022/03/30 03:48:30;;;;;;;30.43;14.23;;;9.90;99.90;;;;;;5085094;28;20490;-70
2022/03/30 03:51:17;;;;;;;24.90;15.30;;;10.00;99.90;;;;;;5081820;28;20494;-72
2022/03/30 03:54:03;;;;;;;24.20;16.60;;;9.90;99.90;;;;;;5083179;28;22776;-71
2022/03/30 03:56:49;;;;;;;35.50;15.63;;;9.70;99.90;;;;;;5081524;28;20436;-71
2022/03/30 03:59:35;;;;;;;25.33;15.40;;;9.70;99.90;;;;;;5086097;28;20455;-72
2022/03/30 04:02:20;;;;;;;28.30;15.23;;;9.90;99.90;;;;;;5087192;28;22116;-70
2022/03/30 04:05:08;;;;;;;24.93;14.90;;;10.10;99.90;;;;;;5081323;28;20537;-70
2022/03/30 04:07:56;;;;;;;21.83;14.80;;;10.20;99.90;;;;;;5087483;28;20439;-70
2022/03/30 04:10:42;;;;;;;23.20;14.70;;;10.40;99.90;;;;;;5083841;28;20496;-70
2022/03/30 04:13:28;;;;;;;21.67;14.23;;;10.40;99.90;;;;;;5082485;28;20457;-71
2022/03/30 04:16:16;;;;;;;27.60;16.77;;;10.30;99.90;;;;;;5095575;28;20497;-71
2022/03/30 04:19:01;;;;;;;25.23;14.60;;;10.40;99.90;;;;;;5103031;28;21028;-72
2022/03/30 04:21:47;;;;;;;24.90;16.50;;;10.50;99.90;;;;;;5081639;28;21040;-70
2022/03/30 04:24:34;;;;;;;24.67;14.60;;;10.50;99.90;;;;;;5086781;28;20455;-70
2022/03/30 04:27:20;;;;;;;26.03;14.47;;;10.60;99.90;;;;;;5084784;28;20458;-71
2022/03/30 04:30:07;;;;;;;23.70;14.97;;;10.60;99.90;;;;;;5090440;28;20435;-71
2022/03/30 04:32:53;;;;;;;23.93;15.23;;;10.70;99.90;;;;;;5085426;28;20444;-70
2022/03/30 04:35:38;;;;;;;22.00;15.50;;;10.60;99.90;;;;;;5087952;28;20471;-70
2022/03/30 04:38:24;;;;;;;24.17;14.13;;;10.60;99.90;;;;;;5087754;28;20425;-71
2022/03/30 04:41:12;;;;;;;21.40;15.53;;;10.70;99.90;;;;;;5084548;28;21124;-71
2022/03/30 04:43:58;;;;;;;27.00;15.40;;;10.70;99.90;;;;;;5083238;28;20516;-73
2022/03/30 04:46:43;;;;;;;22.60;15.70;;;10.80;99.90;;;;;;5084758;28;20449;-70
2022/03/30 04:49:29;;;;;;;19.07;14.10;;;10.80;99.90;;;;;;5081735;28;20502;-70
2022/03/30 04:52:14;;;;;;;23.30;14.40;;;10.80;99.90;;;;;;5080806;28;20458;-69
2022/03/30 04:55:00;;;;;;;23.67;15.20;;;10.80;99.90;;;;;;5081141;28;20511;-70
2022/03/30 04:57:47;;;;;;;21.87;15.30;;;10.80;99.90;;;;;;5082137;28;20423;-70
2022/03/30 05:00:33;;;;;;;28.90;16.60;;;10.80;99.90;;;;;;5084374;28;20433;-73
2022/03/30 05:03:20;;;;;;;29.40;15.93;;;10.80;99.90;;;;;;5087995;28;20817;-71
2022/03/30 05:06:05;;;;;;;22.67;15.77;;;10.80;99.90;;;;;;5088696;28;20428;-70
2022/03/30 05:08:51;;;;;;;27.03;15.33;;;10.80;99.90;;;;;;5086297;28;20973;-71
2022/03/30 05:11:36;;;;;;;20.17;14.60;;;10.80;99.90;;;;;;5086558;28;21246;-69
2022/03/30 05:14:23;;;;;;;23.23;14.50;;;10.70;99.90;;;;;;5087158;28;20568;-73
2022/03/30 05:17:09;;;;;;;21.90;15.13;;;10.80;99.90;;;;;;5088333;28;21172;-73
2022/03/30 05:19:55;;;;;;;20.20;15.73;;;10.50;99.90;;;;;;5084208;28;20460;-70
2022/03/30 05:22:41;;;;;;;25.97;16.90;;;10.40;99.90;;;;;;5079517;28;20475;-70
2022/03/30 05:25:27;;;;;;;23.10;15.83;;;10.50;99.90;;;;;;5083515;28;20454;-70
2022/03/30 05:28:12;;;;;;;21.57;15.40;;;10.40;99.90;;;;;;5087355;28;20542;-72
2022/03/30 05:30:59;;;;;;;22.73;15.97;;;10.30;99.90;;;;;;5080990;28;20433;-71
2022/03/30 05:33:45;;;;;;;22.97;14.97;;;10.30;99.90;;;;;;5093200;28;20456;-70
2022/03/30 05:36:31;;;;;;;24.43;16.37;;;10.00;99.90;;;;;;5092584;28;20564;-72
2022/03/30 05:39:16;;;;;;;29.23;17.13;;;9.80;99.90;;;;;;5093817;28;20473;-70
2022/03/30 05:42:02;;;;;;;34.77;19.40;;;9.70;99.90;;;;;;5083885;28;20421;-71
2022/03/30 05:44:47;;;;;;;27.27;18.50;;;9.90;99.90;;;;;;5082401;28;20998;-70
2022/03/30 05:47:34;;;;;;;27.63;18.60;;;10.00;99.90;;;;;;5084799;28;20405;-70
2022/03/30 05:50:23;;;;;;;29.07;20.00;;;10.10;99.90;;;;;;5080383;28;20454;-72
2022/03/30 05:53:08;;;;;;;34.20;19.43;;;10.20;99.90;;;;;;5087259;28;20437;-70
2022/03/30 05:55:55;;;;;;;58.43;34.70;;;10.20;99.90;;;;;;5087084;28;20480;-73
2022/03/30 05:58:41;;;;;;;46.63;25.93;;;9.90;99.90;;;;;;5084911;28;20439;-72
2022/03/30 06:01:26;;;;;;;47.70;28.23;;;9.60;99.90;;;;;;5088930;28;20557;-70
2022/03/30 06:04:13;;;;;;;33.87;18.97;;;9.70;99.90;;;;;;5083552;28;20482;-70
2022/03/30 06:07:01;;;;;;;31.60;19.40;;;9.50;99.90;;;;;;5084928;28;20481;-71
2022/03/30 06:09:47;;;;;;;32.87;20.87;;;9.40;99.90;;;;;;5091428;28;21010;-70
2022/03/30 06:12:32;;;;;;;32.40;19.50;;;9.50;99.90;;;;;;5082949;28;20507;-69
2022/03/30 06:15:19;;;;;;;30.40;20.47;;;9.70;99.90;;;;;;5102325;28;20459;-72
2022/03/30 06:18:10;;;;;;;28.37;19.20;;;9.70;99.90;;;;;;5083846;28;20807;-70
2022/03/30 06:20:57;;;;;;;31.67;19.90;;;9.80;99.90;;;;;;5078883;28;20472;-71
2022/03/30 06:23:43;;;;;;;28.53;19.30;;;10.00;99.90;;;;;;5084316;28;21020;-70
2022/03/30 06:26:29;;;;;;;29.67;21.00;;;10.10;99.90;;;;;;5084332;28;20431;-71
2022/03/30 06:29:15;;;;;;;38.70;19.40;;;10.20;99.90;;;;;;5097133;28;20443;-70
2022/03/30 06:32:01;;;;;;;26.43;17.07;;;10.30;99.90;;;;;;5079041;28;20445;-70
2022/03/30 06:34:46;;;;;;;29.57;19.70;;;10.20;99.90;;;;;;5086613;28;20524;-70
2022/03/30 06:37:34;;;;;;;29.37;18.40;;;10.20;99.90;;;;;;5087624;28;20912;-70
2022/03/30 06:40:19;;;;;;;28.93;19.63;;;10.20;99.90;;;;;;5082947;28;20466;-69
2022/03/30 06:43:05;;;;;;;30.60;19.20;;;10.30;99.90;;;;;;5086177;28;20525;-70
2022/03/30 06:45:51;;;;;;;27.83;18.80;;;10.30;99.90;;;;;;5079842;28;20448;-70
2022/03/30 06:48:37;;;;;;;31.23;20.40;;;10.40;99.90;;;;;;5086550;28;20449;-71
2022/03/30 06:51:23;;;;;;;27.53;19.60;;;10.50;99.90;;;;;;5081586;28;20434;-70
2022/03/30 06:54:09;;;;;;;27.40;18.60;;;10.40;99.90;;;;;;5084077;28;20461;-71
2022/03/30 06:56:55;;;;;;;27.20;19.10;;;10.40;99.90;;;;;;5085321;28;20431;-70
2022/03/30 06:59:41;;;;;;;25.23;17.83;;;10.50;99.90;;;;;;5075984;28;20452;-71
2022/03/30 07:02:26;;;;;;;30.50;17.70;;;10.50;99.90;;;;;;5086407;28;20419;-70
2022/03/30 07:05:12;;;;;;;27.97;17.50;;;10.60;99.90;;;;;;5086575;28;20527;-71
2022/03/30 07:11:03;;;;;;;31.13;17.80;;;10.50;99.90;;;;;;5080858;28;20457;-70
2022/03/30 07:13:49;;;;;;;31.37;19.60;;;10.50;99.90;;;;;;5096006;28;20417;-70
2022/03/30 07:16:34;;;;;;;29.23;20.40;;;10.50;99.90;;;;;;5088114;28;20386;-70
2022/03/30 07:19:19;;;;;;;35.40;21.00;;;10.40;99.90;;;;;;5078114;28;20538;-72
2022/03/30 07:22:05;;;;;;;31.60;20.87;;;10.40;99.90;;;;;;5080241;28;20430;-70
2022/03/30 07:24:51;;;;;;;37.67;22.97;;;10.30;99.90;;;;;;5084579;28;20468;-71
2022/03/30 07:27:40;;;;;;;35.67;22.00;;;10.30;99.90;;;;;;5078912;28;20565;-71
2022/03/30 07:30:27;;;;;;;37.77;23.60;;;10.30;99.90;;;;;;5081768;28;20442;-71
2022/03/30 07:33:13;;;;;;;39.60;23.17;;;10.10;99.90;;;;;;5090293;28;20867;-71
2022/03/30 07:35:59;;;;;;;37.53;24.77;;;10.10;99.90;;;;;;5073086;28;20534;-71
2022/03/30 07:38:45;;;;;;;36.17;24.37;;;10.00;99.90;;;;;;5079205;28;20431;-72
2022/03/30 07:41:30;;;;;;;44.13;27.20;;;10.00;99.90;;;;;;5078064;28;20975;-71
2022/03/30 07:44:18;;;;;;;37.80;23.43;;;10.10;99.90;;;;;;5080879;28;20442;-71
2022/03/30 07:47:05;;;;;;;42.10;24.57;;;10.10;99.90;;;;;;5077696;28;20481;-71
2022/03/30 07:49:50;;;;;;;38.30;24.73;;;10.10;99.90;;;;;;5068937;28;20443;-71
2022/03/30 07:52:36;;;;;;;46.70;25.30;;;10.10;99.90;;;;;;5073503;28;20606;-71
2022/03/30 07:55:22;;;;;;;41.53;25.13;;;10.20;99.90;;;;;;5081438;28;20472;-71
2022/03/30 07:58:08;;;;;;;41.40;26.40;;;10.20;99.90;;;;;;5088762;28;20437;-71
2022/03/30 08:00:56;;;;;;;43.40;26.00;;;10.20;99.90;;;;;;5077730;28;20521;-70
2022/03/30 08:03:42;;;;;;;44.30;27.87;;;10.20;99.90;;;;;;5078650;28;20449;-72
2022/03/30 08:06:29;;;;;;;41.67;27.80;;;10.30;99.90;;;;;;5076278;28;21008;-72
2022/03/30 08:09:14;;;;;;;44.30;28.00;;;10.20;99.90;;;;;;5074711;28;20420;-72
2022/03/30 08:12:00;;;;;;;41.90;27.23;;;10.20;99.90;;;;;;5081165;28;20469;-72
2022/03/30 08:14:46;;;;;;;43.60;26.07;;;10.20;99.90;;;;;;5076665;28;20471;-71
2022/03/30 08:17:34;;;;;;;45.63;29.03;;;10.00;99.90;;;;;;5077417;28;20428;-72
2022/03/30 08:23:23;;;;;;;45.47;28.37;;;10.20;99.90;;;;;;5080434;28;20437;-73
2022/03/30 08:26:09;;;;;;;44.50;27.00;;;10.10;99.90;;;;;;5078653;28;20951;-73
2022/03/30 08:28:54;;;;;;;44.40;27.87;;;10.10;99.90;;;;;;5075243;28;20457;-72
2022/03/30 08:31:40;;;;;;;43.33;28.20;;;10.10;99.90;;;;;;5073068;28;20477;-73
2022/03/30 08:34:27;;;;;;;46.60;29.00;;;10.20;99.90;;;;;;5082572;28;20847;-71
2022/03/30 08:37:13;;;;;;;45.50;28.77;;;10.20;99.90;;;;;;5082599;28;20443;-73
2022/03/30 08:39:59;;;;;;;45.70;26.53;;;10.20;99.90;;;;;;5072579;28;20931;-72
2022/03/30 08:42:46;;;;;;;46.57;28.77;;;10.10;99.90;;;;;;5081690;28;20439;-72
2022/03/30 08:45:31;;;;;;;47.40;27.87;;;10.10;99.90;;;;;;5079465;28;20482;-72
2022/03/30 08:48:17;;;;;;;49.53;28.20;;;10.10;99.90;;;;;;5079140;28;20440;-72
2022/03/30 08:51:05;;;;;;;44.77;28.10;;;10.20;99.90;;;;;;5077385;28;20420;-72
2022/03/30 08:53:50;;;;;;;51.27;29.77;;;10.20;99.90;;;;;;5082407;28;20492;-72
2022/03/30 08:56:37;;;;;;;48.67;28.47;;;10.00;99.90;;;;;;5084495;28;20968;-72
2022/03/30 08:59:24;;;;;;;42.07;29.10;;;10.00;99.90;;;;;;5078392;28;20424;-72
2022/03/30 09:02:10;;;;;;;43.67;27.73;;;10.00;99.90;;;;;;5077868;28;20421;-72
2022/03/30 09:05:13;;;;;;;40.30;26.13;;;10.10;99.90;;;;;;5079106;28;20478;-72
2022/03/30 09:08:14;;;;;;;41.70;27.37;;;10.10;99.90;;;;;;5076287;28;20426;-72
2022/03/30 09:10:59;;;;;;;50.87;27.77;;;10.20;99.90;;;;;;5084343;28;20860;-72
2022/03/30 09:14:00;;;;;;;41.27;26.83;;;10.10;99.90;;;;;;5082636;28;20479;-71
2022/03/30 09:16:48;;;;;;;41.17;26.77;;;10.10;99.90;;;;;;5078149;28;20487;-71
2022/03/30 09:19:36;;;;;;;41.07;27.50;;;10.20;99.90;;;;;;5090132;28;20415;-71
2022/03/30 09:22:23;;;;;;;43.20;25.47;;;10.20;99.90;;;;;;5087210;28;20413;-71
2022/03/30 09:25:11;;;;;;;39.33;26.20;;;10.20;99.90;;;;;;5084522;28;20458;-72
2022/03/30 09:27:58;;;;;;;36.33;24.47;;;10.20;99.90;;;;;;5082279;28;20449;-72
2022/03/30 09:30:44;;;;;;;41.73;25.60;;;10.30;99.90;;;;;;5081431;28;20414;-71
2022/03/30 09:33:30;;;;;;;34.13;21.97;;;10.20;99.90;;;;;;5085905;28;20423;-72
2022/03/30 09:36:27;;;;;;;41.27;25.40;;;10.10;99.90;;;;;;5077489;28;20449;-71
2022/03/30 09:39:30;;;;;;;41.33;25.40;;;10.10;99.90;;;;;;5080168;28;20442;-72
2022/03/30 09:42:18;;;;;;;43.67;25.10;;;10.10;99.90;;;;;;5084542;28;20485;-71
2022/03/30 09:45:04;;;;;;;36.77;24.67;;;10.10;99.90;;;;;;5085739;28;20793;-72
2022/03/30 09:47:50;;;;;;;35.93;24.73;;;10.20;99.90;;;;;;5083117;28;20524;-71
2022/03/30 09:50:41;;;;;;;39.63;25.57;;;10.30;99.90;;;;;;5080556;28;20450;-71
2022/03/30 09:53:29;;;;;;;37.70;23.77;;;10.20;99.90;;;;;;5089927;28;20436;-72
2022/03/30 09:56:16;;;;;;;41.50;25.00;;;10.30;99.90;;;;;;5093403;28;20483;-71
2022/03/30 09:59:05;;;;;;;41.87;24.43;;;10.30;99.90;;;;;;5079560;28;20448;-72
2022/03/30 10:01:50;;;;;;;37.07;22.57;;;10.40;99.90;;;;;;5078798;28;20463;-71
2022/03/30 10:04:37;;;;;;;34.40;24.00;;;10.30;99.90;;;;;;5081502;28;20833;-71
2022/03/30 10:07:23;;;;;;;33.93;21.10;;;10.30;99.90;;;;;;5074415;28;20424;-72
2022/03/30 10:10:12;;;;;;;41.33;24.10;;;10.40;99.90;;;;;;5083312;28;20980;-72
2022/03/30 10:12:58;;;;;;;38.87;24.77;;;10.40;99.90;;;;;;5080935;28;20498;-72
2022/03/30 10:15:47;;;;;;;39.40;24.87;;;10.40;99.90;;;;;;5084983;28;20996;-71
2022/03/30 10:18:33;;;;;;;40.17;23.60;;;10.50;99.90;;;;;;5076689;28;20819;-72
2022/03/30 10:21:23;;;;;;;38.90;26.40;;;10.40;99.90;;;;;;5076767;28;20460;-71
2022/03/30 10:24:41;;;;;;;40.50;25.50;;;10.50;99.90;;;;;;5074583;28;20844;-72
2022/03/30 10:27:33;;;;;;;43.30;24.77;;;10.50;99.90;;;;;;5078572;28;20840;-72
2022/03/30 10:30:24;;;;;;;43.07;24.60;;;10.50;99.90;;;;;;5079620;28;20794;-72
2022/03/30 10:33:12;;;;;;;35.63;22.57;;;10.60;99.90;;;;;;5077312;28;20436;-72
2022/03/30 10:36:00;;;;;;;39.53;25.20;;;10.50;99.90;;;;;;5080147;28;20450;-71
2022/03/30 10:39:08;;;;;;;33.23;23.20;;;10.50;99.90;;;;;;5076984;28;20447;-71
2022/03/30 10:41:56;;;;;;;38.20;24.50;;;10.40;99.90;;;;;;5075049;28;20435;-71
2022/03/30 10:44:45;;;;;;;39.77;22.87;;;10.40;99.90;;;;;;5083026;28;20428;-72
2022/03/30 10:47:31;;;;;;;41.77;24.97;;;10.40;99.90;;;;;;5080777;28;20488;-72
2022/03/30 10:50:33;;;;;;;39.07;23.33;;;10.50;99.90;;;;;;5079521;28;20424;-71
2022/03/30 10:53:41;;;;;;;37.67;23.43;;;10.50;99.90;;;;;;5076127;28;20450;-72
2022/03/30 10:56:34;;;;;;;29.97;22.17;;;10.60;99.90;;;;;;5079096;28;20439;-71
2022/03/30 10:59:20;;;;;;;39.27;24.00;;;10.50;99.90;;;;;;5079638;28;20932;-72
2022/03/30 11:02:14;;;;;;;37.17;23.30;;;10.50;99.90;;;;;;5076972;28;20485;-72
2022/03/30 11:05:10;;;;;;;42.57;22.30;;;10.50;99.90;;;;;;5076804;28;20460;-72
2022/03/30 11:07:57;;;;;;;35.47;22.00;;;10.60;99.90;;;;;;5072836;28;20457;-72
2022/03/30 11:10:48;;;;;;;32.60;21.73;;;10.60;99.90;;;;;;5078790;28;20408;-72
2022/03/30 11:13:34;;;;;;;38.47;21.57;;;10.70;99.90;;;;;;5077218;28;20422;-72
2022/03/30 11:16:20;;;;;;;35.77;22.70;;;10.70;99.90;;;;;;5081486;28;20431;-71
2022/03/30 11:19:06;;;;;;;34.50;21.73;;;10.70;99.90;;;;;;5086189;28;20424;-71
2022/03/30 11:22:02;;;;;;;36.90;24.60;;;10.80;99.90;;;;;;5086128;28;20470;-71
2022/03/30 11:25:07;;;;;;;33.20;21.00;;;10.80;99.90;;;;;;5082197;28;20858;-71
2022/03/30 11:28:14;;;;;;;34.30;23.07;;;10.80;99.90;;;;;;5076360;28;20425;-71
2022/03/30 11:31:04;;;;;;;32.97;22.93;;;10.80;99.90;;;;;;5076173;28;20420;-71
2022/03/30 11:34:23;;;;;;;35.97;20.60;;;10.80;99.90;;;;;;5081932;28;20813;-72
2022/03/30 11:37:10;;;;;;;37.60;23.27;;;10.90;99.90;;;;;;5080501;28;20465;-70
2022/03/30 11:40:04;;;;;;;31.70;22.60;;;10.90;99.90;;;;;;5078451;28;20493;-70
2022/03/30 11:42:52;;;;;;;31.60;20.07;;;11.00;99.90;;;;;;5077595;28;20457;-70
2022/03/30 11:45:38;;;;;;;32.10;20.57;;;11.10;99.90;;;;;;5088207;28;21094;-71
2022/03/30 11:48:25;;;;;;;33.37;20.50;;;11.20;99.90;;;;;;5082613;28;20599;-71
2022/03/30 11:51:11;;;;;;;33.30;21.87;;;11.30;99.90;;;;;;5086581;28;20922;-71
2022/03/30 11:54:14;;;;;;;32.97;21.47;;;11.40;99.90;;;;;;5079673;28;20468;-71
2022/03/30 11:57:01;;;;;;;32.20;21.73;;;11.40;99.90;;;;;;5075776;28;20463;-71
2022/03/30 11:59:55;;;;;;;34.20;22.53;;;11.50;99.90;;;;;;5083345;28;20423;-71
2022/03/30 12:02:44;;;;;;;34.73;22.77;;;11.40;99.90;;;;;;5088152;28;20451;-71
2022/03/30 12:05:29;;;;;;;34.83;22.17;;;11.40;99.90;;;;;;5081492;28;20430;-70
2022/03/30 12:08:15;;;;;;;32.63;22.07;;;11.40;99.90;;;;;;5090204;28;20428;-72
2022/03/30 12:11:03;;;;;;;31.40;21.40;;;11.50;99.90;;;;;;5085188;28;20447;-72
2022/03/30 12:13:52;;;;;;;33.67;22.90;;;11.50;99.90;;;;;;5081385;28;20940;-72
2022/03/30 12:16:40;;;;;;;29.67;21.00;;;11.60;99.90;;;;;;5075204;28;20417;-72
2022/03/30 12:19:26;;;;;;;38.77;25.67;;;11.60;99.90;;;;;;5076964;28;20453;-72
2022/03/30 12:22:17;;;;;;;36.63;22.47;;;11.70;99.90;;;;;;5079076;28;20468;-72
2022/03/30 12:25:03;;;;;;;29.57;21.33;;;11.60;99.90;;;;;;5088099;28;20508;-72
2022/03/30 12:27:49;;;;;;;35.03;22.33;;;11.60;99.90;;;;;;5081296;28;20453;-72
2022/03/30 12:30:39;;;;;;;31.93;22.40;;;11.60;99.90;;;;;;5089343;28;20414;-72
2022/03/30 12:33:25;;;;;;;34.43;22.53;;;11.50;99.90;;;;;;5082913;28;20939;-72
2022/03/30 12:36:15;;;;;;;27.10;19.17;;;11.40;99.90;;;;;;5085453;28;20563;-72
2022/03/30 12:39:16;;;;;;;33.83;20.67;;;11.30;99.90;;;;;;5084384;28;20445;-72
2022/03/30 12:42:02;;;;;;;34.77;21.83;;;11.40;99.90;;;;;;5081994;28;20472;-72
2022/03/30 12:44:51;;;;;;;30.60;21.33;;;11.50;99.90;;;;;;5085267;28;20556;-72
2022/03/30 12:47:40;;;;;;;30.73;21.47;;;11.50;99.90;;;;;;5084887;28;21075;-71
2022/03/30 12:50:31;;;;;;;40.60;23.10;;;11.60;99.90;;;;;;5090557;28;20477;-71
2022/03/30 12:53:17;;;;;;;32.77;21.30;;;11.60;99.90;;;;;;5079503;28;20408;-72
2022/03/30 12:56:14;;;;;;;34.27;21.13;;;11.60;99.90;;;;;;5090371;28;20800;-72
2022/03/30 12:59:04;;;;;;;38.20;23.13;;;11.70;99.90;;;;;;5083967;28;20427;-72
2022/03/30 13:01:50;;;;;;;32.57;22.13;;;11.70;99.90;;;;;;5079164;28;20436;-71
2022/03/30 13:04:37;;;;;;;32.63;19.70;;;11.60;99.90;;;;;;5082760;28;20447;-71
2022/03/30 13:07:25;;;;;;;37.93;23.60;;;11.60;99.90;;;;;;5087419;28;20802;-71
2022/03/30 13:10:11;;;;;;;39.30;21.60;;;11.70;99.90;;;;;;5088765;28;20517;-71
2022/03/30 13:12:59;;;;;;;31.70;22.70;;;11.70;99.90;;;;;;5085611;28;20477;-72
2022/03/30 13:15:45;;;;;;;31.60;20.63;;;11.80;99.90;;;;;;5080162;28;20912;-72
2022/03/30 13:18:30;;;;;;;35.53;23.30;;;11.80;99.90;;;;;;5093497;28;20414;-71
2022/03/30 13:21:17;;;;;;;31.37;21.67;;;11.80;99.90;;;;;;5078118;28;20510;-71
2022/03/30 13:24:11;;;;;;;32.10;20.87;;;11.80;99.90;;;;;;5087485;23;20460;-84
2022/03/30 13:26:58;;;;;;;36.10;23.27;;;11.80;99.90;;;;;;5030248;28;20452;-84
2022/03/30 13:29:46;;;;;;;31.30;21.50;;;11.80;99.90;;;;;;5032724;28;20525;-83
2022/03/30 13:32:31;;;;;;;32.83;21.13;;;11.80;99.90;;;;;;5017653;28;20461;-84
2022/03/30 13:35:17;;;;;;;32.87;23.27;;;11.80;99.90;;;;;;5018000;28;20593;-84
2022/03/30 13:38:04;;;;;;;34.73;21.90;;;11.80;99.90;;;;;;5016271;28;20826;-84
2022/03/30 13:40:50;;;;;;;28.60;20.57;;;11.80;99.90;;;;;;5012693;28;20928;-84
2022/03/30 13:43:36;;;;;;;31.00;20.67;;;11.80;99.90;;;;;;5018508;28;20822;-82
2022/03/30 13:46:22;;;;;;;27.70;20.07;;;11.80;99.90;;;;;;5017661;28;20414;-83
2022/03/30 13:49:08;;;;;;;29.63;17.13;;;11.80;99.90;;;;;;5017391;28;21030;-83
2022/03/30 13:51:54;;;;;;;26.63;18.60;;;11.80;99.90;;;;;;5012855;28;20477;-83
2022/03/30 13:54:41;;;;;;;30.37;20.30;;;11.80;99.90;;;;;;5014101;28;20418;-83
2022/03/30 13:57:26;;;;;;;32.27;20.43;;;11.80;99.90;;;;;;5014811;28;20457;-84
2022/03/30 14:00:13;;;;;;;30.43;20.37;;;11.90;99.90;;;;;;5008849;28;20557;-83
2022/03/30 14:03:00;;;;;;;28.90;20.27;;;11.80;99.90;;;;;;5016089;28;20483;-83
2022/03/30 14:05:45;;;;;;;31.07;22.00;;;11.80;99.90;;;;;;5015682;28;20484;-83
2022/03/30 14:08:32;;;;;;;32.60;21.80;;;11.80;99.90;;;;;;5014856;28;20823;-84
2022/03/30 14:11:20;;;;;;;32.83;20.73;;;11.90;99.90;;;;;;5014146;28;20476;-83
2022/03/30 14:14:06;;;;;;;34.07;21.43;;;11.90;99.90;;;;;;5010465;28;20484;-84
2022/03/30 14:16:52;;;;;;;32.00;21.87;;;11.90;99.90;;;;;;5012779;28;20540;-83
2022/03/30 14:19:38;;;;;;;25.93;19.27;;;11.80;99.90;;;;;;5012234;28;20541;-83